Time;durP1;ratioP1;P1;durP2;ratioP2;P2;SDS_P1;SDS_P2;PMS_P1;PMS_P2;Temp;Humidity;BMP_temperature;BMP_pressure;BME280_temperature;BME280_humidity;BME280_pressure;Samples;Min_cycle;Max_cycle;Signal;HPM_P1;HPM_P2
2021/03/01 00:01:22;;;;;;;32.80;13.95;;;;;;;-143.98;100.00;68091.63;6188144;23;20021;-82
2021/03/01 00:04:03;;;;;;;34.88;14.90;;;;;;;-143.98;100.00;68091.63;6189335;23;20274;-85
2021/03/01 00:06:29;;;;;;;33.42;15.25;;;;;;;-143.98;100.00;68091.63;6189035;23;20040;-85
2021/03/01 00:08:56;;;;;;;31.38;15.60;;;;;;;-143.98;100.00;68091.63;6190124;23;20462;-84
2021/03/01 00:11:35;;;;;;;36.15;16.83;;;;;;;-143.98;100.00;68091.63;6187774;23;20403;-85
2021/03/01 00:14:04;;;;;;;31.83;15.73;;;;;;;-143.98;100.00;68091.63;6188700;23;20029;-83
2021/03/01 00:16:37;;;;;;;36.58;17.50;;;;;;;-143.98;100.00;68091.63;6164582;23;20024;-84
2021/03/01 00:19:04;;;;;;;41.38;16.13;;;;;;;-143.98;100.00;68091.63;6188881;23;20032;-83
2021/03/01 00:21:33;;;;;;;41.17;16.63;;;;;;;-143.98;100.00;68091.63;6164812;23;20033;-83
2021/03/01 00:24:03;;;;;;;40.17;17.95;;;;;;;-143.98;100.00;68091.63;6190131;23;20435;-85
2021/03/01 00:26:29;;;;;;;40.83;17.77;;;;;;;-143.98;100.00;68091.63;6191039;23;20039;-85
2021/03/01 00:28:57;;;;;;;43.67;18.20;;;;;;;-143.98;100.00;68091.63;6171992;23;20012;-84
2021/03/01 00:31:23;;;;;;;39.40;17.27;;;;;;;-143.98;100.00;68091.63;6236911;23;20018;-85
2021/03/01 00:33:50;;;;;;;42.10;17.83;;;;;;;-143.98;100.00;68091.63;6201997;23;20032;-85
2021/03/01 00:36:16;;;;;;;34.88;15.27;;;;;;;-143.98;100.00;68091.63;6170604;23;20284;-85
2021/03/01 00:38:42;;;;;;;42.53;17.80;;;;;;;-143.98;100.00;68091.63;6168724;23;20349;-85
2021/03/01 00:41:09;;;;;;;40.17;17.40;;;;;;;-143.98;100.00;68091.63;6192507;23;20024;-85
2021/03/01 00:43:35;;;;;;;40.35;17.00;;;;;;;-143.98;100.00;68091.63;6193165;23;20024;-85
2021/03/01 00:46:03;;;;;;;46.80;17.25;;;;;;;-143.98;100.00;68091.63;6168348;23;20035;-83
2021/03/01 00:48:29;;;;;;;37.45;16.25;;;;;;;-143.98;100.00;68091.63;6194626;23;20036;-84
2021/03/01 00:51:05;;;;;;;40.67;16.83;;;;;;;-143.98;100.00;68091.63;6195595;23;20055;-83
2021/03/01 00:53:31;;;;;;;43.60;16.70;;;;;;;-143.98;100.00;68091.63;6168894;23;20049;-83
2021/03/01 00:55:58;;;;;;;42.28;16.85;;;;;;;-143.98;100.00;68091.63;6171003;23;20115;-83
2021/03/01 00:58:24;;;;;;;49.78;17.00;;;;;;;-143.98;100.00;68091.63;6170509;23;20349;-83
2021/03/01 01:00:59;;;;;;;51.22;16.85;;;;;;;-143.98;100.00;68091.63;6194763;23;20029;-83
2021/03/01 01:03:31;;;;;;;36.20;15.27;;;;;;;-143.98;100.00;68091.63;6171431;23;20037;-83
2021/03/01 01:05:58;;;;;;;40.90;13.75;;;;;;;-143.98;100.00;68091.63;6171451;23;20028;-83
2021/03/01 01:08:26;;;;;;;45.15;14.43;;;;;;;-143.98;100.00;68091.63;6170764;23;20031;-83
2021/03/01 01:10:53;;;;;;;37.50;13.38;;;;;;;-143.98;100.00;68091.63;6194783;23;20024;-83
2021/03/01 01:13:22;;;;;;;38.45;14.63;;;;;;;-143.98;100.00;68091.63;6167158;23;20020;-83
2021/03/01 01:15:48;;;;;;;38.85;14.45;;;;;;;-143.98;100.00;68091.63;6168528;23;20455;-83
2021/03/01 01:18:21;;;;;;;42.22;14.25;;;;;;;-143.98;100.00;68091.63;6195509;23;20410;-83
2021/03/01 01:20:48;;;;;;;30.55;12.70;;;;;;;-143.98;100.00;68091.63;6194776;23;20028;-83
2021/03/01 01:23:14;;;;;;;28.88;12.07;;;;;;;-143.98;100.00;68091.63;6169065;23;20087;-82
2021/03/01 01:25:40;;;;;;;29.58;11.60;;;;;;;-143.98;100.00;68091.63;6193759;23;20028;-83
2021/03/01 01:28:08;;;;;;;33.95;13.13;;;;;;;-143.98;100.00;68091.63;6194635;23;20029;-83
2021/03/01 01:30:34;;;;;;;29.52;12.10;;;;;;;-143.98;100.00;68091.63;6189569;23;20029;-83
2021/03/01 01:33:01;;;;;;;29.40;12.95;;;;;;;-143.98;100.00;68091.63;6190028;23;20029;-84
2021/03/01 01:35:31;;;;;;;35.63;12.55;;;;;;;-143.98;100.00;68091.63;6190067;23;20033;-83
2021/03/01 01:38:00;;;;;;;32.25;14.70;;;;;;;-143.98;100.00;68091.63;6191107;23;20052;-83
2021/03/01 01:40:27;;;;;;;32.15;12.43;;;;;;;-143.98;100.00;68091.63;6189094;23;20427;-83
2021/03/01 01:42:56;;;;;;;35.08;12.88;;;;;;;-143.98;100.00;68091.63;6190059;23;20036;-83
2021/03/01 01:45:25;;;;;;;32.75;12.73;;;;;;;-143.98;100.00;68091.63;6189405;23;20033;-83
2021/03/01 01:47:55;;;;;;;46.00;13.85;;;;;;;-143.98;100.00;68091.63;6169040;23;20096;-84
2021/03/01 01:50:24;;;;;;;39.67;12.27;;;;;;;-143.98;100.00;68091.63;6168009;23;20407;-83
2021/03/01 01:52:55;;;;;;;26.42;8.85;;;;;;;-143.98;100.00;68091.63;6167986;23;20028;-83
2021/03/01 01:55:29;;;;;;;27.25;9.70;;;;;;;-143.98;100.00;68091.63;6165675;23;20242;-83
2021/03/01 01:57:55;;;;;;;26.85;8.93;;;;;;;-143.98;100.00;68091.63;6165679;23;20044;-83
2021/03/01 02:00:43;;;;;;;39.90;9.65;;;;;;;-143.98;100.00;68091.63;6209044;23;20009;-83
2021/03/01 02:03:36;;;;;;;28.90;8.20;;;;;;;-143.98;100.00;68091.63;6187243;23;20036;-83
2021/03/01 02:06:28;;;;;;;16.60;6.05;;;;;;;-143.98;100.00;68091.63;6191408;23;20079;-83
2021/03/01 02:09:26;;;;;;;20.10;6.63;;;;;;;-143.98;100.00;68091.63;6189504;23;20036;-83
2021/03/01 02:12:13;;;;;;;23.25;6.53;;;;;;;-143.98;100.00;68091.63;6203970;23;20025;-83
2021/03/01 02:15:36;;;;;;;22.20;7.63;;;;;;;-143.98;100.00;68091.63;6177816;23;20362;-83
2021/03/01 02:18:04;;;;;;;21.88;6.97;;;;;;;-143.98;100.00;68091.63;6103911;23;20030;-83
2021/03/01 02:20:32;;;;;;;19.58;6.82;;;;;;;-143.98;100.00;68091.63;6127970;23;20026;-83
2021/03/01 02:22:59;;;;;;;36.70;8.15;;;;;;;-143.98;100.00;68091.63;6179390;23;20109;-84
2021/03/01 02:25:27;;;;;;;28.08;8.40;;;;;;;-143.98;100.00;68091.63;6187857;23;20035;-84
2021/03/01 02:28:03;;;;;;;36.20;7.55;;;;;;;-143.98;100.00;68091.63;6163339;23;20079;-84
2021/03/01 02:30:34;;;;;;;23.15;6.95;;;;;;;-143.98;100.00;68091.63;6169324;23;20028;-85
2021/03/01 02:33:05;;;;;;;29.25;8.13;;;;;;;-143.98;100.00;68091.63;6169260;23;20029;-83
2021/03/01 02:35:33;;;;;;;19.13;6.97;;;;;;;-143.98;100.00;68091.63;6168984;23;20039;-83
2021/03/01 02:38:01;;;;;;;18.33;7.25;;;;;;;-143.98;100.00;68091.63;6194353;23;20025;-83
2021/03/01 02:40:27;;;;;;;19.60;6.47;;;;;;;-143.98;100.00;68091.63;6194549;23;20064;-83
2021/03/01 02:43:06;;;;;;;21.42;7.30;;;;;;;-143.98;100.00;68091.63;6194583;23;20187;-83
2021/03/01 02:45:33;;;;;;;31.88;8.05;;;;;;;-143.98;100.00;68091.63;6169652;23;20025;-84
2021/03/01 02:48:02;;;;;;;35.53;8.75;;;;;;;-143.98;100.00;68091.63;6218153;23;20024;-84
2021/03/01 02:50:29;;;;;;;36.17;10.07;;;;;;;-143.98;100.00;68091.63;6191535;23;20028;-84
2021/03/01 02:52:56;;;;;;;35.20;8.73;;;;;;;-143.98;100.00;68091.63;6166323;23;20489;-84
2021/03/01 02:55:28;;;;;;;41.28;7.85;;;;;;;-143.98;100.00;68091.63;6192459;23;20029;-84
2021/03/01 02:58:08;;;;;;;35.20;7.15;;;;;;;-143.98;100.00;68091.63;6173775;23;20410;-84
2021/03/01 03:00:38;;;;;;;49.78;8.15;;;;;;;-143.98;100.00;68091.63;6193511;23;20048;-84
2021/03/01 03:03:07;;;;;;;36.55;6.22;;;;;;;-143.98;100.00;68091.63;6181299;23;20021;-84
2021/03/01 03:05:34;;;;;;;28.50;6.57;;;;;;;-143.98;100.00;68091.63;6184722;23;20076;-84
2021/03/01 03:08:02;;;;;;;37.17;6.40;;;;;;;-143.98;100.00;68091.63;6183120;23;20036;-84
2021/03/01 03:10:31;;;;;;;50.40;7.80;;;;;;;-143.98;100.00;68091.63;6196682;23;20367;-88
2021/03/01 03:12:59;;;;;;;41.95;7.47;;;;;;;-143.98;100.00;68091.63;6195950;23;20128;-84
2021/03/01 03:15:28;;;;;;;23.27;5.80;;;;;;;-143.98;100.00;68091.63;6220042;23;20025;-85
2021/03/01 03:17:55;;;;;;;26.63;6.22;;;;;;;-143.98;100.00;68091.63;6170547;23;20031;-85
2021/03/01 03:20:29;;;;;;;20.60;6.72;;;;;;;-143.98;100.00;68091.63;6171407;23;20024;-85
2021/03/01 03:22:56;;;;;;;31.42;7.05;;;;;;;-143.98;100.00;68091.63;6169037;23;20028;-86
2021/03/01 03:25:22;;;;;;;20.48;6.43;;;;;;;-143.98;100.00;68091.63;6168916;23;20040;-85
2021/03/01 03:27:48;;;;;;;19.48;6.45;;;;;;;-143.98;100.00;68091.63;6195377;23;20059;-85
2021/03/01 03:30:26;;;;;;;31.60;5.53;;;;;;;-143.98;100.00;68091.63;6198859;23;20028;-85
2021/03/01 03:32:55;;;;;;;30.00;6.53;;;;;;;-143.98;100.00;68091.63;6212630;23;20031;-85
2021/03/01 03:35:22;;;;;;;23.88;7.13;;;;;;;-143.98;100.00;68091.63;6185583;23;20024;-85
2021/03/01 03:38:27;;;;;;;43.47;6.53;;;;;;;-143.98;100.00;68091.63;6194656;23;20287;-85
2021/03/01 03:41:00;;;;;;;27.30;5.75;;;;;;;-143.98;100.00;68091.63;6074102;23;20347;-85
2021/03/01 03:43:27;;;;;;;21.25;6.45;;;;;;;-143.98;100.00;68091.63;6176986;23;20079;-85
2021/03/01 03:45:55;;;;;;;25.13;6.30;;;;;;;-143.98;100.00;68091.63;6168980;23;20032;-85
2021/03/01 03:48:42;;;;;;;22.98;6.57;;;;;;;-143.98;100.00;68091.63;6194761;23;20043;-84
2021/03/01 03:51:11;;;;;;;30.38;7.97;;;;;;;-143.98;100.00;68091.63;6194514;23;20024;-86
2021/03/01 03:53:41;;;;;;;23.80;7.15;;;;;;;-143.98;100.00;68091.63;6192682;23;20059;-85
2021/03/01 03:56:07;;;;;;;33.53;7.88;;;;;;;-143.98;100.00;68091.63;6193747;23;20039;-85
2021/03/01 03:58:40;;;;;;;20.33;6.43;;;;;;;-143.98;100.00;68091.63;6169737;23;20152;-85
2021/03/01 04:01:07;;;;;;;26.77;5.32;;;;;;;-143.98;100.00;68091.63;6195606;23;20025;-85
2021/03/01 04:03:38;;;;;;;26.58;6.18;;;;;;;-143.98;100.00;68091.63;6169798;23;20029;-85
2021/03/01 04:06:05;;;;;;;20.77;5.97;;;;;;;-143.98;100.00;68091.63;6193567;23;20034;-86
2021/03/01 04:08:33;;;;;;;28.02;6.50;;;;;;;-143.98;100.00;68091.63;6169744;23;20120;-85
2021/03/01 04:11:00;;;;;;;16.88;5.78;;;;;;;-143.98;100.00;68091.63;6194444;23;20024;-85
2021/03/01 04:13:28;;;;;;;17.75;6.35;;;;;;;-143.98;100.00;68091.63;6194685;23;20523;-86
2021/03/01 04:15:58;;;;;;;17.25;6.25;;;;;;;-143.98;100.00;68091.63;6173954;23;20035;-86
2021/03/01 04:18:33;;;;;;;18.95;6.05;;;;;;;-143.98;100.00;68091.63;6173494;23;20043;-86
2021/03/01 04:21:02;;;;;;;14.68;5.30;;;;;;;-143.98;100.00;68091.63;6201835;23;20398;-86
2021/03/01 04:23:30;;;;;;;17.95;5.78;;;;;;;-143.98;100.00;68091.63;6211648;23;20025;-86
2021/03/01 04:26:00;;;;;;;15.77;5.40;;;;;;;-143.98;100.00;68091.63;6186720;23;20064;-85
2021/03/01 04:28:27;;;;;;;18.02;4.68;;;;;;;-143.98;100.00;68091.63;6210375;23;20039;-85
2021/03/01 04:31:00;;;;;;;18.08;4.82;;;;;;;-143.98;100.00;68091.63;6202755;23;20017;-86
2021/03/01 04:33:26;;;;;;;18.48;5.28;;;;;;;-143.98;100.00;68091.63;6148239;23;20025;-85
2021/03/01 04:35:54;;;;;;;18.65;5.82;;;;;;;-143.98;100.00;68091.63;6164832;23;20040;-84
2021/03/01 04:38:20;;;;;;;21.27;6.25;;;;;;;-143.98;100.00;68091.63;6164984;23;20036;-84
2021/03/01 04:40:50;;;;;;;29.90;6.18;;;;;;;-143.98;100.00;68091.63;6162350;23;20257;-84
2021/03/01 04:43:19;;;;;;;19.23;5.25;;;;;;;-143.98;100.00;68091.63;6140183;23;20060;-86
2021/03/01 04:45:50;;;;;;;16.30;5.40;;;;;;;-143.98;100.00;68091.63;6164027;23;20120;-85
2021/03/01 04:48:20;;;;;;;20.13;5.93;;;;;;;-143.98;100.00;68091.63;6163877;23;20292;-84
2021/03/01 04:50:48;;;;;;;26.00;6.00;;;;;;;-143.98;100.00;68091.63;6162058;23;20025;-85
2021/03/01 04:53:17;;;;;;;24.23;6.40;;;;;;;-143.98;100.00;68091.63;6135120;23;20029;-85
2021/03/01 04:55:45;;;;;;;25.00;7.40;;;;;;;-143.98;100.00;68091.63;6160812;23;20025;-85
2021/03/01 04:58:17;;;;;;;18.90;6.68;;;;;;;-143.98;100.00;68091.63;6161334;23;20096;-85
2021/03/01 05:00:44;;;;;;;21.98;6.13;;;;;;;-143.98;100.00;68091.63;6134466;23;20122;-84
2021/03/01 05:03:12;;;;;;;21.75;6.35;;;;;;;-143.98;100.00;68091.63;6159889;23;20391;-85
2021/03/01 05:05:38;;;;;;;22.45;5.85;;;;;;;-143.98;100.00;68091.63;6135414;23;20029;-85
2021/03/01 05:08:15;;;;;;;19.50;5.88;;;;;;;-143.98;100.00;68091.63;6160367;23;20036;-84
2021/03/01 05:10:41;;;;;;;19.90;5.15;;;;;;;-143.98;100.00;68091.63;6156726;23;20067;-85
2021/03/01 05:13:08;;;;;;;19.00;5.78;;;;;;;-143.98;100.00;68091.63;6158793;23;20306;-85
2021/03/01 05:15:38;;;;;;;20.48;5.95;;;;;;;-143.98;100.00;68091.63;6159012;23;20033;-85
2021/03/01 05:18:11;;;;;;;22.83;6.18;;;;;;;-143.98;100.00;68091.63;6159771;23;20354;-84
2021/03/01 05:20:38;;;;;;;31.20;7.07;;;;;;;-143.98;100.00;68091.63;6160831;23;20465;-85
2021/03/01 05:23:07;;;;;;;23.77;6.80;;;;;;;-143.98;100.00;68091.63;6143019;23;20024;-85
2021/03/01 05:25:37;;;;;;;23.45;6.60;;;;;;;-143.98;100.00;68091.63;6208245;23;20036;-85
2021/03/01 05:28:05;;;;;;;54.55;7.53;;;;;;;-143.98;100.00;68091.63;6206322;23;20029;-85
2021/03/01 05:30:31;;;;;;;27.08;8.15;;;;;;;-143.98;100.00;68091.63;6182973;23;20089;-85
2021/03/01 05:33:02;;;;;;;91.20;10.27;;;;;;;-143.98;100.00;68091.63;6195135;23;20024;-84
2021/03/01 05:35:29;;;;;;;30.90;7.88;;;;;;;-143.98;100.00;68091.63;6200101;23;20016;-84
2021/03/01 05:37:55;;;;;;;19.55;6.13;;;;;;;-143.98;100.00;68091.63;6186302;23;20024;-85
2021/03/01 05:40:22;;;;;;;18.63;5.97;;;;;;;-143.98;100.00;68091.63;6174171;23;20402;-84
2021/03/01 05:42:52;;;;;;;19.77;6.30;;;;;;;-143.98;100.00;68091.63;6169413;23;20025;-84
2021/03/01 05:45:18;;;;;;;23.20;6.22;;;;;;;-143.98;100.00;68091.63;6171180;23;20031;-83
2021/03/01 05:47:48;;;;;;;75.38;9.40;;;;;;;-143.98;100.00;68091.63;6193318;23;20058;-85
2021/03/01 05:50:14;;;;;;;23.48;6.50;;;;;;;-143.98;100.00;68091.63;6170422;23;20075;-84
2021/03/01 05:52:45;;;;;;;58.25;7.97;;;;;;;-143.98;100.00;68091.63;6193698;23;20035;-83
2021/03/01 05:55:12;;;;;;;52.65;8.02;;;;;;;-143.98;100.00;68091.63;6191304;23;20028;-84
2021/03/01 05:57:42;;;;;;;26.60;7.97;;;;;;;-143.98;100.00;68091.63;6168432;23;20028;-84
2021/03/01 06:00:11;;;;;;;47.25;9.32;;;;;;;-143.98;100.00;68091.63;6165846;23;20387;-84
2021/03/01 06:02:38;;;;;;;25.33;9.57;;;;;;;-143.98;100.00;68091.63;6190199;23;20452;-85
2021/03/01 06:05:09;;;;;;;28.75;9.82;;;;;;;-143.98;100.00;68091.63;6167959;23;20134;-84
2021/03/01 06:07:35;;;;;;;57.53;11.50;;;;;;;-143.98;100.00;68091.63;6190222;23;20020;-84
2021/03/01 06:10:05;;;;;;;32.17;10.00;;;;;;;-143.98;100.00;68091.63;6165872;23;20040;-84
2021/03/01 06:12:47;;;;;;;34.05;10.73;;;;;;;-143.98;100.00;68091.63;6166123;23;20033;-84
2021/03/01 06:15:21;;;;;;;31.92;9.63;;;;;;;-143.98;100.00;68091.63;6165538;23;20313;-84
2021/03/01 06:18:25;;;;;;;26.55;7.75;;;;;;;-143.98;100.00;68091.63;6189849;23;20078;-84
2021/03/01 06:20:53;;;;;;;28.52;9.27;;;;;;;-143.98;100.00;68091.63;6070727;23;20030;-84
2021/03/01 06:23:30;;;;;;;35.05;11.60;;;;;;;-143.98;100.00;68091.63;6173205;23;20500;-83
2021/03/01 06:26:19;;;;;;;35.40;10.75;;;;;;;-143.98;100.00;68091.63;6187002;23;20111;-84
2021/03/01 06:28:55;;;;;;;19.55;7.82;;;;;;;-143.98;100.00;68091.63;6187556;23;20047;-84
2021/03/01 06:31:44;;;;;;;29.33;8.90;;;;;;;-143.98;100.00;68091.63;6158436;23;20048;-84
2021/03/01 06:34:20;;;;;;;19.77;8.10;;;;;;;-143.98;100.00;68091.63;6170923;23;20091;-84
2021/03/01 06:37:06;;;;;;;23.45;8.80;;;;;;;-143.98;100.00;68091.63;6178280;23;20025;-84
2021/03/01 06:39:44;;;;;;;24.10;8.60;;;;;;;-143.98;100.00;68091.63;6163838;23;20084;-84
2021/03/01 06:42:30;;;;;;;23.05;8.13;;;;;;;-143.98;100.00;68091.63;6157411;23;20021;-84
2021/03/01 06:45:22;;;;;;;20.15;7.03;;;;;;;-143.98;100.00;68091.63;6134965;23;20430;-84
2021/03/01 06:47:57;;;;;;;21.70;8.13;;;;;;;-143.98;100.00;68091.63;6138735;23;20092;-85
2021/03/01 06:50:45;;;;;;;19.30;8.27;;;;;;;-143.98;100.00;68091.63;6133330;23;20112;-84
2021/03/01 06:53:14;;;;;;;26.42;8.20;;;;;;;-143.98;100.00;68091.63;6158477;23;20025;-84
2021/03/01 06:56:08;;;;;;;21.27;7.50;;;;;;;-143.98;100.00;68091.63;6131392;23;20025;-84
2021/03/01 06:58:52;;;;;;;20.75;7.90;;;;;;;-143.98;100.00;68091.63;6133274;23;20076;-84
2021/03/01 07:01:31;;;;;;;18.00;7.28;;;;;;;-143.98;100.00;68091.63;6158911;23;20103;-84
2021/03/01 07:04:05;;;;;;;17.63;7.10;;;;;;;-143.98;100.00;68091.63;6155815;23;20322;-83
2021/03/01 07:06:57;;;;;;;19.13;7.78;;;;;;;-143.98;100.00;68091.63;6139213;23;20033;-83
2021/03/01 07:09:32;;;;;;;19.08;7.47;;;;;;;-143.98;100.00;68091.63;6134130;23;20025;-84
2021/03/01 07:12:14;;;;;;;;;;;;;;;;;;;;;
2021/03/01 07:14:41;;;;;;;17.52;7.13;;;;;;;-143.98;100.00;68091.63;6164674;23;20021;-85
2021/03/01 07:17:14;;;;;;;15.85;7.05;;;;;;;-143.98;100.00;68091.63;6175149;23;20025;-84
2021/03/01 07:19:52;;;;;;;18.42;7.68;;;;;;;-143.98;100.00;68091.63;6174595;23;20057;-83
2021/03/01 07:22:32;;;;;;;17.33;7.53;;;;;;;-143.98;100.00;68091.63;6150116;23;20032;-84
2021/03/01 07:25:13;;;;;;;21.38;7.63;;;;;;;-143.98;100.00;68091.63;6175610;23;20138;-84
2021/03/01 07:27:51;;;;;;;20.15;8.18;;;;;;;-143.98;100.00;68091.63;6168256;23;20297;-84
2021/03/01 07:30:34;;;;;;;20.40;8.20;;;;;;;-143.98;100.00;68091.63;6166512;23;20032;-84
2021/03/01 07:41:29;;;;;;;17.42;7.57;;;;;;;-143.98;100.00;68091.63;6208654;23;20413;-85
2021/03/01 07:44:58;;;;;;;15.70;7.05;;;;;;;-143.98;100.00;68091.63;6196477;23;20017;-84
2021/03/01 07:48:59;;;;;;;18.70;8.15;;;;;;;-143.98;100.00;68091.63;6191890;23;20096;-85
2021/03/01 07:52:21;;;;;;;16.98;8.30;;;;;;;-143.98;100.00;68091.63;6073278;23;20030;-85
2021/03/01 07:56:21;;;;;;;18.88;8.27;;;;;;;-143.98;100.00;68091.63;6026579;23;20030;-85
2021/03/01 08:02:52;;;;;;;19.20;8.07;;;;;;;-143.98;100.00;68091.63;6093724;23;20038;-84
2021/03/01 08:25:50;;;;;;;20.63;8.63;;;;;;;-143.98;100.00;68091.63;5904117;24;20036;-85
2021/03/01 08:32:42;;;;;;;;;;;;;;;;;;;;;
2021/03/01 08:39:57;;;;;;;20.85;8.55;;;;;;;-143.98;100.00;68091.63;5877399;24;20069;-86
2021/03/01 08:51:21;;;;;;;20.95;8.80;;;;;;;-143.98;100.00;68091.63;5874438;24;20049;-83
2021/03/01 08:55:33;;;;;;;16.80;7.85;;;;;;;-143.98;100.00;68091.63;5879285;24;20469;-84
2021/03/01 09:21:51;;;;;;;;;;;;;;;;;;;;;
2021/03/01 09:36:30;;;;;;;16.33;8.98;;;;;;;-143.98;100.00;68091.63;5848448;24;20178;-84
2021/03/01 09:51:09;;;;;;;13.90;7.35;;;;;;;-143.98;100.00;68091.63;5861842;24;20475;-84
2021/03/01 09:54:37;;;;;;;14.60;7.45;;;;;;;-143.98;100.00;68091.63;5953575;24;20070;-84
2021/03/01 09:58:10;;;;;;;;;;;;;;;;;;;;;
2021/03/01 10:16:28;;;;;;;;;;;;;;;;;;;;;
2021/03/01 10:27:48;;;;;;;16.48;7.60;;;;;;;-143.98;100.00;68091.63;5799795;24;20054;-85
2021/03/01 12:13:53;;;;;;;22.63;8.52;;;;;;;-143.98;100.00;68091.63;5947963;24;20078;-85
2021/03/01 12:17:24;;;;;;;;;;;;;;;;;;;;;
2021/03/01 12:24:44;;;;;;;;;;;;;;;;;;;;;
2021/03/01 12:32:17;;;;;;;17.75;8.75;;;;;;;-143.98;100.00;68091.63;5669073;25;20075;-84
2021/03/01 13:35:12;;;;;;;;;;;;;;;;;;;;;
2021/03/01 13:50:06;;;;;;;;;;;;;;;;;;;;;
2021/03/01 13:53:50;;;;;;;;;;;;;;;;;;;;;
2021/03/01 13:57:55;;;;;;;;;;;;;;;;;;;;;
2021/03/01 14:01:17;;;;;;;22.38;10.30;;;;;;;13.79;44.88;103463.97;5981098;23;20024;-84
2021/03/01 14:09:03;;;;;;;23.50;10.68;;;;;;;14.73;43.35;103456.06;5980687;24;20024;-83
2021/03/01 14:12:43;;;;;;;21.42;10.90;;;;;;;14.64;42.34;103454.34;5916037;24;20025;-84
2021/03/01 14:20:09;;;;;;;;;;;;;;;;;;;;;
2021/03/01 14:31:14;;;;;;;;;;;;;;;;;;;;;
2021/03/01 14:34:31;;;;;;;24.13;11.90;;;;;;;14.27;42.83;103438.88;5839438;24;20027;-83
2021/03/01 14:38:16;;;;;;;24.60;11.18;;;;;;;13.46;45.16;103444.09;5800203;24;20115;-84
2021/03/01 14:41:30;;;;;;;24.63;11.52;;;;;;;13.62;45.33;103432.06;5895054;24;20029;-84
2021/03/01 14:45:00;;;;;;;;;;;;;;;;;;;;;
2021/03/01 14:48:10;;;;;;;25.75;12.07;;;;;;;14.33;44.15;103427.66;6004321;23;20074;-83
2021/03/01 14:51:35;;;;;;;27.73;12.88;;;;;;;14.02;44.66;103429.44;6002831;23;20161;-83
2021/03/01 14:55:07;;;;;;;28.67;12.60;;;;;;;13.97;44.97;103426.84;6001747;23;20047;-83
2021/03/01 14:58:19;;;;;;;25.08;11.38;;;;;;;14.07;44.29;103422.53;6051842;23;20039;-83
2021/03/01 15:04:49;;;;;;;26.35;11.93;;;;;;;13.52;46.55;103430.31;5975240;23;20033;-83
2021/03/01 15:07:51;;;;;;;;;;;;;;;;;;;;;
2021/03/01 15:11:02;;;;;;;25.48;13.30;;;;;;;13.02;48.42;103423.28;6054096;23;20146;-83
2021/03/01 15:14:05;;;;;;;;;;;;;;;;;;;;;
2021/03/01 15:17:17;;;;;;;24.95;11.55;;;;;;;12.73;49.36;103418.00;6079605;23;20090;-83
2021/03/01 15:20:03;;;;;;;21.25;10.98;;;;;;;12.63;50.05;103414.50;6098268;23;20213;-85
2021/03/01 15:22:52;;;;;;;24.13;11.60;;;;;;;12.57;49.16;103420.53;6073164;23;20169;-83
2021/03/01 15:25:36;;;;;;;25.15;11.80;;;;;;;12.17;49.98;103416.88;6072034;23;20031;-83
2021/03/01 15:28:10;;;;;;;24.65;13.07;;;;;;;11.97;51.54;103423.63;6041521;23;20058;-82
2021/03/01 15:31:04;;;;;;;28.73;11.80;;;;;;;12.25;50.29;103415.22;6065502;23;20365;-83
2021/03/01 15:33:30;;;;;;;20.23;10.90;;;;;;;11.98;52.09;103417.59;6038717;23;20038;-83
2021/03/01 15:36:10;;;;;;;22.80;11.45;;;;;;;11.61;53.76;103419.84;6068101;23;20030;-83
2021/03/01 15:38:37;;;;;;;25.70;11.98;;;;;;;10.91;56.22;103417.41;6083806;23;20014;-83
2021/03/01 15:41:08;;;;;;;21.80;11.02;;;;;;;10.93;57.10;103415.75;6082739;23;20070;-83
2021/03/01 15:43:36;;;;;;;22.23;11.43;;;;;;;10.82;57.35;103412.16;6074447;23;20030;-83
2021/03/01 15:46:05;;;;;;;25.17;12.02;;;;;;;10.53;58.76;103410.06;6079754;23;20026;-83
2021/03/01 15:48:32;;;;;;;23.83;11.27;;;;;;;10.49;58.68;103417.72;6080527;23;20049;-83
2021/03/01 15:50:59;;;;;;;27.60;13.30;;;;;;;10.69;58.15;103412.88;6081709;23;20014;-83
2021/03/01 15:53:30;;;;;;;24.00;12.43;;;;;;;10.61;58.31;103419.63;6079160;23;20194;-82
2021/03/01 15:56:00;;;;;;;22.35;10.80;;;;;;;10.54;58.57;103413.50;6080864;23;20253;-82
2021/03/01 15:58:26;;;;;;;26.33;11.40;;;;;;;10.31;59.90;103418.38;6103968;23;20030;-82
2021/03/01 16:00:59;;;;;;;26.67;13.40;;;;;;;10.37;59.28;103420.16;6096171;23;20321;-83
2021/03/01 16:03:30;;;;;;;28.75;11.60;;;;;;;10.44;58.68;103411.66;6065603;23;20122;-83
2021/03/01 16:06:08;;;;;;;22.80;11.82;;;;;;;10.62;57.85;103408.47;6066180;23;20030;-83
2021/03/01 16:08:35;;;;;;;23.95;11.48;;;;;;;10.37;59.14;103412.44;6062019;23;20077;-83
2021/03/01 16:11:02;;;;;;;27.95;12.65;;;;;;;10.51;58.31;103413.50;6085578;23;20272;-83
2021/03/01 16:13:31;;;;;;;27.95;11.82;;;;;;;10.55;58.67;103418.69;6084718;23;20026;-83
2021/03/01 16:16:01;;;;;;;20.17;10.65;;;;;;;10.20;60.50;103422.44;6084995;23;20042;-83
2021/03/01 16:18:30;;;;;;;28.08;12.55;;;;;;;10.32;60.10;103420.09;6037045;23;20229;-83
2021/03/01 16:20:59;;;;;;;25.33;11.65;;;;;;;10.14;60.51;103419.78;6038382;23;20113;-82
2021/03/01 16:23:26;;;;;;;24.85;12.07;;;;;;;10.08;59.64;103420.56;6059721;23;20649;-83
2021/03/01 16:25:56;;;;;;;22.05;11.60;;;;;;;10.05;61.17;103426.53;6063956;23;20295;-82
2021/03/01 16:28:23;;;;;;;28.00;11.90;;;;;;;10.01;60.83;103424.75;6039488;23;20041;-82
2021/03/01 16:30:53;;;;;;;27.10;11.18;;;;;;;10.01;60.45;103426.47;6062625;23;20026;-81
2021/03/01 16:33:22;;;;;;;25.88;12.98;;;;;;;10.04;59.76;103431.66;6061214;23;20343;-82
2021/03/01 16:35:49;;;;;;;22.05;12.25;;;;;;;9.75;61.75;103437.19;6059911;23;20106;-82
2021/03/01 16:38:18;;;;;;;25.30;12.63;;;;;;;9.66;61.30;103434.47;6060651;23;20405;-83
2021/03/01 16:40:47;;;;;;;24.65;12.85;;;;;;;9.69;62.17;103437.09;6083723;23;20134;-84
2021/03/01 16:43:15;;;;;;;26.70;11.80;;;;;;;9.74;61.65;103439.75;6062782;23;20413;-83
2021/03/01 16:45:48;;;;;;;24.50;12.23;;;;;;;9.74;61.24;103434.59;6083133;23;20381;-83
2021/03/01 16:48:26;;;;;;;26.77;12.65;;;;;;;9.71;61.47;103435.44;6063999;23;20037;-82
2021/03/01 16:50:55;;;;;;;27.55;12.85;;;;;;;9.57;61.59;103430.88;6044918;23;20031;-82
2021/03/01 16:53:28;;;;;;;23.33;12.63;;;;;;;9.39;62.28;103432.28;6066339;23;20474;-83
2021/03/01 16:55:55;;;;;;;29.23;13.88;;;;;;;9.31;63.21;103428.69;6084044;23;20235;-84
2021/03/01 16:58:22;;;;;;;32.20;16.30;;;;;;;9.16;63.68;103430.97;6118839;23;20081;-83
2021/03/01 17:00:49;;;;;;;43.80;24.52;;;;;;;9.12;63.80;103432.63;6118366;23;20026;-84
2021/03/01 17:03:27;;;;;;;40.63;22.67;;;;;;;9.11;63.61;103433.47;6117758;23;20033;-84
2021/03/01 17:06:00;;;;;;;32.47;20.15;;;;;;;8.95;64.41;103437.44;6097007;23;20036;-83
2021/03/01 17:08:35;;;;;;;29.52;14.82;;;;;;;8.87;64.74;103431.25;6095506;23;20189;-84
2021/03/01 17:11:04;;;;;;;22.17;12.80;;;;;;;8.92;63.97;103431.34;6095563;23;20069;-84
2021/03/01 17:13:32;;;;;;;27.20;13.73;;;;;;;8.82;64.26;103437.16;6094666;23;20081;-82
2021/03/01 17:15:59;;;;;;;56.63;32.58;;;;;;;8.82;64.26;103437.16;6093888;23;20506;-83
2021/03/01 17:18:30;;;;;;;30.05;16.92;;;;;;;8.61;64.88;103438.44;6094180;23;20042;-83
2021/03/01 17:21:07;;;;;;;34.72;17.63;;;;;;;8.61;64.88;103438.44;6097727;23;20029;-83
2021/03/01 17:23:41;;;;;;;31.95;14.65;;;;;;;8.61;64.88;103438.44;6079523;23;20079;-84
2021/03/01 17:26:07;;;;;;;32.00;16.30;;;;;;;8.32;66.92;103442.03;6093934;23;20084;-82
2021/03/01 17:28:39;;;;;;;35.17;17.02;;;;;;;8.32;66.92;103442.03;6116016;23;20026;-82
2021/03/01 17:31:07;;;;;;;28.00;16.15;;;;;;;8.32;66.92;103442.03;6091445;23;20022;-82
2021/03/01 17:33:34;;;;;;;36.92;16.75;;;;;;;8.32;66.92;103442.03;6087658;23;20026;-83
2021/03/01 17:36:10;;;;;;;31.50;13.82;;;;;;;8.32;66.92;103442.03;6094516;23;20348;-83
2021/03/01 17:38:42;;;;;;;31.30;14.73;;;;;;;8.32;66.92;103442.03;6067872;23;20298;-82
2021/03/01 17:41:15;;;;;;;31.85;14.50;;;;;;;8.32;66.92;103442.03;6093258;23;20219;-82